Aviation Digital Data Service (ADDS)

Output produced by METARs form (2339 UTC 18 October 2019)
found at http://www.aviationweather.gov/metar/data/
 
Forecast for: EVRA (RIGA AIRPORT , LV)
Text: TAF EVRA 182301Z 1900/1924 17006KT 9999 BKN020
Forecast period: 0000 UTC 19 October 2019 to 0000 UTC 20 October 2019
Forecast type: FROM: standard forecast or significant change
Winds: from the S (170 degrees) at 7 MPH (6 knots; 3.1 m/s)
Visibility: 6 or more miles 10+ km)
Ceiling: 2000 feet AGL
Clouds: broken clouds at 2000 feet AGL
Weather: no significant weather forecast for this period
Text: TEMPO 1900/1903 4000 BR
Forecast period: 0000 to 0300 UTC 19 October 2019
Forecast type: TEMPORARY: The following changes expected for less than half the time period
Visibility: 2.49 miles (4.01 km)
Ceiling: unknown
Clouds: missing
Weather: BR  (mist)
Text: TEMPO 1903/1911 BKN005 OVC015
Forecast period: 0300 to 1100 UTC 19 October 2019
Forecast type: TEMPORARY: The following changes expected for less than half the time period
Visibility: missing
Ceiling: 500 feet AGL
Clouds: broken clouds at 500 feet AGL
overcast cloud deck at 1500 feet AGL
Weather: no significant weather forecast for this period
Text: TEMPO 1917/1924 3000 BR
Forecast period: 1700 UTC 19 October 2019 to 0000 UTC 20 October 2019
Forecast type: TEMPORARY: The following changes expected for less than half the time period
Visibility: 1.86 miles (2.99 km)
Ceiling: unknown
Clouds: missing
Weather: BR  (mist)